Time;durP1;ratioP1;P1;durP2;ratioP2;P2;SDS_P1;SDS_P2;PMS_P1;PMS_P2;Temp;Humidity;BMP_temperature;BMP_pressure;BME280_temperature;BME280_humidity;BME280_pressure;Samples;Min_cycle;Max_cycle;Signal;HPM_P1;HPM_P2
2023/10/02 00:01:10;;;;;;;12.50;6.78;;;15.90;99.90;;;;;;5051335;28;20258;-83
2023/10/02 00:03:40;;;;;;;9.30;6.07;;;15.90;99.90;;;;;;5057813;28;20048;-84
2023/10/02 00:06:07;;;;;;;9.68;5.93;;;15.90;99.90;;;;;;5027617;28;20017;-83
2023/10/02 00:08:36;;;;;;;12.27;7.10;;;15.90;99.90;;;;;;5032916;28;20413;-82
2023/10/02 00:11:37;;;;;;;10.75;5.95;;;15.90;99.90;;;;;;5046396;28;20021;-83
2023/10/02 00:17:00;;;;;;;11.63;5.93;;;15.90;99.90;;;;;;5052706;28;20108;-82
2023/10/02 00:19:39;;;;;;;9.85;5.60;;;15.90;99.90;;;;;;5034299;28;20017;-83
2023/10/02 00:22:34;;;;;;;10.48;6.15;;;15.90;99.90;;;;;;5034745;28;20524;-83
2023/10/02 00:24:57;;;;;;;8.63;5.93;;;15.90;99.90;;;;;;5052045;28;20032;-83
2023/10/02 00:27:23;;;;;;;10.60;5.38;;;15.90;99.90;;;;;;5050810;28;20419;-83
2023/10/02 00:29:51;;;;;;;9.68;6.25;;;15.90;99.90;;;;;;5027847;28;20021;-85
2023/10/02 00:32:19;;;;;;;10.88;6.20;;;15.90;99.90;;;;;;5045499;28;20047;-82
2023/10/02 00:34:46;;;;;;;13.20;6.13;;;15.90;99.90;;;;;;5032659;28;20318;-84
2023/10/02 00:37:15;;;;;;;11.70;6.47;;;15.90;99.90;;;;;;5033142;28;20055;-82
2023/10/02 00:39:41;;;;;;;9.80;5.65;;;15.90;99.90;;;;;;5032853;28;20523;-83
2023/10/02 00:42:24;;;;;;;11.50;7.05;;;15.80;99.90;;;;;;5052340;28;20017;-83
2023/10/02 00:44:54;;;;;;;11.10;7.00;;;15.90;99.90;;;;;;5028254;28;20023;-84
2023/10/02 00:47:38;;;;;;;14.00;7.32;;;15.90;99.90;;;;;;5048695;28;20033;-82
2023/10/02 00:50:17;;;;;;;13.68;6.15;;;15.90;99.90;;;;;;5036456;28;20021;-82
2023/10/02 00:53:05;;;;;;;12.18;6.47;;;15.90;99.90;;;;;;5030922;28;20024;-82
2023/10/02 00:55:35;;;;;;;11.18;6.97;;;15.90;99.90;;;;;;5047862;28;20052;-83
2023/10/02 00:58:05;;;;;;;13.68;8.23;;;15.90;99.90;;;;;;5050509;28;20035;-83
2023/10/02 01:00:35;;;;;;;12.05;8.20;;;15.90;99.90;;;;;;5048270;28;20450;-83
2023/10/02 01:03:04;;;;;;;14.02;8.20;;;15.90;99.90;;;;;;5031667;28;20012;-82
2023/10/02 01:05:42;;;;;;;13.35;8.07;;;15.90;99.90;;;;;;5026640;28;20488;-83
2023/10/02 01:11:04;;;;;;;12.63;7.10;;;15.80;99.90;;;;;;5049740;28;20036;-84
2023/10/02 01:13:32;;;;;;;14.00;8.73;;;15.90;99.90;;;;;;5048076;28;20813;-83
2023/10/02 01:16:04;;;;;;;14.68;7.97;;;15.90;99.90;;;;;;5049386;28;20088;-82
2023/10/02 01:18:30;;;;;;;12.52;7.60;;;15.90;99.90;;;;;;5048895;28;20451;-82
2023/10/02 01:20:59;;;;;;;15.50;8.40;;;15.90;99.90;;;;;;5034537;28;20056;-82
2023/10/02 01:23:26;;;;;;;13.18;8.45;;;15.90;99.90;;;;;;5032670;28;20117;-82
2023/10/02 01:26:00;;;;;;;15.05;8.00;;;15.90;99.90;;;;;;5028165;28;20707;-82
2023/10/02 01:28:32;;;;;;;12.57;7.18;;;15.90;99.90;;;;;;5050880;28;20041;-82
2023/10/02 01:31:31;;;;;;;10.38;7.30;;;15.90;99.90;;;;;;5032074;28;20082;-82
2023/10/02 01:33:45;;;;;;;12.50;7.38;;;15.90;99.90;;;;;;5048697;28;20037;-82
2023/10/02 01:36:11;;;;;;;14.23;7.57;;;15.90;99.90;;;;;;5032442;28;20075;-82
2023/10/02 01:38:37;;;;;;;11.70;7.00;;;15.90;99.90;;;;;;5049826;28;20143;-82
2023/10/02 01:41:04;;;;;;;12.27;7.13;;;15.90;99.90;;;;;;5031560;28;20021;-83
2023/10/02 01:43:43;;;;;;;10.85;7.47;;;15.90;99.90;;;;;;5034016;28;20025;-82
2023/10/02 01:46:10;;;;;;;9.93;6.47;;;15.90;99.90;;;;;;5050121;28;20025;-82
2023/10/02 01:48:41;;;;;;;14.80;8.05;;;15.90;99.90;;;;;;5032029;28;20033;-84
2023/10/02 01:51:15;;;;;;;14.45;8.48;;;15.90;99.90;;;;;;5031944;28;20032;-86
2023/10/02 01:53:51;;;;;;;11.98;7.32;;;15.90;99.90;;;;;;5049230;28;20096;-82
2023/10/02 01:56:22;;;;;;;14.55;7.53;;;15.90;99.90;;;;;;5029989;28;20025;-82
2023/10/02 01:58:49;;;;;;;12.32;7.07;;;15.90;99.90;;;;;;5049679;28;20531;-83
2023/10/02 02:01:15;;;;;;;12.32;8.18;;;15.90;99.90;;;;;;5046488;28;20021;-82
2023/10/02 02:03:46;;;;;;;13.32;9.18;;;15.90;99.90;;;;;;5049285;28;20071;-82
2023/10/02 02:06:16;;;;;;;12.55;8.20;;;15.90;99.90;;;;;;5049791;28;20627;-82
2023/10/02 02:08:47;;;;;;;11.90;8.45;;;15.90;99.90;;;;;;5030915;28;20037;-84
2023/10/02 02:11:22;;;;;;;9.63;6.78;;;15.90;99.90;;;;;;5052563;28;20292;-83
2023/10/02 02:13:53;;;;;;;10.43;7.30;;;15.90;99.90;;;;;;5047414;28;20017;-81
2023/10/02 02:16:22;;;;;;;11.57;6.40;;;15.90;99.90;;;;;;5025800;28;20059;-82
2023/10/02 02:18:55;;;;;;;11.48;7.00;;;15.90;99.90;;;;;;5032820;28;20020;-82
2023/10/02 02:21:24;;;;;;;13.93;7.63;;;15.90;99.90;;;;;;5045015;28;20109;-82
2023/10/02 02:24:03;;;;;;;11.48;7.70;;;15.90;99.90;;;;;;5031347;28;20377;-82
2023/10/02 02:26:36;;;;;;;12.43;7.95;;;15.90;99.90;;;;;;5031336;28;20017;-82
2023/10/02 02:29:02;;;;;;;15.70;8.80;;;15.90;99.90;;;;;;5030001;28;20347;-82
2023/10/02 02:31:32;;;;;;;15.50;8.80;;;15.90;99.90;;;;;;5033642;28;20024;-83
2023/10/02 02:33:58;;;;;;;13.77;8.00;;;15.90;99.90;;;;;;5031168;28;20033;-83
2023/10/02 02:36:28;;;;;;;11.32;7.75;;;15.90;99.90;;;;;;5049501;28;20033;-82
2023/10/02 02:39:16;;;;;;;12.90;7.40;;;15.90;99.90;;;;;;5030993;28;20013;-82
2023/10/02 02:41:43;;;;;;;14.07;8.98;;;15.90;99.90;;;;;;5047511;28;20021;-83
2023/10/02 02:44:29;;;;;;;14.43;8.80;;;15.90;99.90;;;;;;5031009;28;20427;-82
2023/10/02 02:46:55;;;;;;;13.85;7.75;;;15.90;99.90;;;;;;5046485;28;20029;-82
2023/10/02 02:49:22;;;;;;;11.15;6.63;;;15.90;99.90;;;;;;5047674;28;20025;-82
2023/10/02 02:51:48;;;;;;;11.73;7.82;;;15.90;99.90;;;;;;5034597;28;20031;-81
2023/10/02 02:54:15;;;;;;;14.20;8.48;;;15.90;99.90;;;;;;5029972;28;20045;-82
2023/10/02 02:56:41;;;;;;;11.10;7.45;;;15.80;99.90;;;;;;5051201;28;20025;-82
2023/10/02 02:59:08;;;;;;;13.57;7.30;;;15.90;99.90;;;;;;5051120;28;20021;-83
2023/10/02 03:01:34;;;;;;;14.65;8.38;;;15.80;99.90;;;;;;5034394;28;20108;-82
2023/10/02 03:04:11;;;;;;;14.48;7.82;;;15.80;99.90;;;;;;5053276;28;20043;-82
2023/10/02 03:06:37;;;;;;;11.35;7.03;;;15.80;99.90;;;;;;5033051;28;20029;-82
2023/10/02 03:09:05;;;;;;;15.32;8.32;;;15.80;99.90;;;;;;5034030;28;20033;-84
2023/10/02 03:11:32;;;;;;;14.55;7.53;;;15.80;99.90;;;;;;5051112;28;20099;-83
2023/10/02 03:14:14;;;;;;;13.55;8.02;;;15.80;99.90;;;;;;5051750;28;20040;-82
2023/10/02 03:16:44;;;;;;;15.85;8.90;;;15.80;99.90;;;;;;5052331;28;20502;-83
2023/10/02 03:19:13;;;;;;;14.32;8.10;;;15.80;99.90;;;;;;5034466;28;20111;-82
2023/10/02 03:21:41;;;;;;;13.88;8.23;;;15.80;99.90;;;;;;5051874;28;20473;-81
2023/10/02 03:24:07;;;;;;;11.25;7.25;;;15.80;99.90;;;;;;5034417;28;20469;-82
2023/10/02 03:29:16;;;;;;;14.75;7.63;;;15.80;99.90;;;;;;5052534;28;20028;-83
2023/10/02 03:31:43;;;;;;;14.23;8.25;;;15.80;99.90;;;;;;5049782;28;20021;-81
2023/10/02 03:34:29;;;;;;;12.13;7.45;;;15.80;99.90;;;;;;5033419;28;20036;-81
2023/10/02 03:37:21;;;;;;;14.18;8.60;;;15.80;99.90;;;;;;5034215;28;20461;-83
2023/10/02 03:39:59;;;;;;;12.60;7.95;;;15.80;99.90;;;;;;5032352;28;20096;-82
2023/10/02 03:42:32;;;;;;;18.20;9.57;;;15.80;99.90;;;;;;5050103;28;20032;-82
2023/10/02 03:45:05;;;;;;;14.52;8.02;;;15.80;99.90;;;;;;5034481;28;20475;-82
2023/10/02 03:47:31;;;;;;;15.65;8.55;;;15.80;99.90;;;;;;5033739;28;20035;-82
2023/10/02 03:50:00;;;;;;;10.50;7.32;;;15.80;99.90;;;;;;5033867;28;20063;-83
2023/10/02 03:52:30;;;;;;;10.68;7.15;;;15.80;99.90;;;;;;5051605;28;20027;-82
2023/10/02 03:54:56;;;;;;;12.02;8.32;;;15.80;99.90;;;;;;5033736;28;20036;-82
2023/10/02 03:57:47;;;;;;;12.30;8.82;;;15.80;99.90;;;;;;5051828;28;20063;-82
2023/10/02 04:00:27;;;;;;;15.50;8.95;;;15.80;99.90;;;;;;5033651;28;20048;-82
2023/10/02 04:02:56;;;;;;;14.43;9.00;;;15.80;99.90;;;;;;5035639;28;20032;-82
2023/10/02 04:10:57;;;;;;;13.85;7.60;;;15.70;99.90;;;;;;5050468;28;20107;-82
2023/10/02 04:13:25;;;;;;;12.82;7.88;;;15.70;99.90;;;;;;5050236;28;20461;-82
2023/10/02 04:15:53;;;;;;;10.32;7.20;;;15.70;99.90;;;;;;5031225;28;20009;-82
2023/10/02 04:18:45;;;;;;;16.55;8.77;;;15.60;99.90;;;;;;5051210;28;20079;-82
2023/10/02 04:21:12;;;;;;;16.25;8.43;;;15.60;99.90;;;;;;5048018;28;20044;-82
2023/10/02 04:23:45;;;;;;;13.93;8.95;;;15.60;99.90;;;;;;5031067;28;20654;-82
2023/10/02 04:26:21;;;;;;;13.85;8.15;;;15.60;99.90;;;;;;5051285;28;20477;-82
2023/10/02 04:28:54;;;;;;;15.75;8.52;;;15.60;99.90;;;;;;5032947;28;20036;-82
2023/10/02 04:31:30;;;;;;;14.02;8.93;;;15.60;99.90;;;;;;5030109;28;20690;-83
2023/10/02 04:34:21;;;;;;;13.63;7.68;;;15.50;99.90;;;;;;5031024;28;20132;-83
2023/10/02 04:36:47;;;;;;;12.85;7.70;;;15.50;99.90;;;;;;5031689;28;20021;-82
2023/10/02 04:42:19;;;;;;;15.13;8.40;;;15.50;99.90;;;;;;5050905;28;20044;-84
2023/10/02 04:44:46;;;;;;;13.52;7.88;;;15.50;99.90;;;;;;5051172;28;20648;-81
2023/10/02 04:47:17;;;;;;;14.82;8.13;;;15.40;99.90;;;;;;5049181;28;20021;-82
2023/10/02 04:55:24;;;;;;;12.20;7.60;;;15.40;99.90;;;;;;5050776;28;20088;-82
2023/10/02 04:57:55;;;;;;;12.65;8.23;;;15.40;99.90;;;;;;5050108;28;20431;-82
2023/10/02 05:00:32;;;;;;;13.38;8.55;;;15.40;99.90;;;;;;5032488;28;20099;-82
2023/10/02 05:05:49;;;;;;;14.68;8.45;;;15.30;99.90;;;;;;5051464;28;20104;-83
2023/10/02 05:08:23;;;;;;;13.95;9.02;;;15.30;99.90;;;;;;5033558;28;20044;-83
2023/10/02 05:10:52;;;;;;;11.85;8.20;;;15.30;99.90;;;;;;5050937;28;20108;-83
2023/10/02 05:13:44;;;;;;;13.85;7.80;;;15.30;99.90;;;;;;5045788;28;20025;-82
2023/10/02 05:16:09;;;;;;;18.00;8.98;;;15.20;99.90;;;;;;5051394;28;20102;-84
2023/10/02 05:18:35;;;;;;;13.60;8.52;;;15.30;99.90;;;;;;5033131;28;20037;-83
2023/10/02 05:21:01;;;;;;;13.02;8.68;;;15.20;99.90;;;;;;5032876;28;20111;-82
2023/10/02 05:23:30;;;;;;;12.38;7.45;;;15.20;99.90;;;;;;5032917;28;20024;-84
2023/10/02 05:26:02;;;;;;;13.48;8.10;;;15.20;99.90;;;;;;5051255;28;20062;-81
2023/10/02 05:28:44;;;;;;;13.88;8.20;;;15.20;99.90;;;;;;5032598;28;20051;-81
2023/10/02 05:31:11;;;;;;;14.77;8.85;;;15.20;99.90;;;;;;5031210;28;20029;-83
2023/10/02 05:33:37;;;;;;;17.20;9.10;;;15.20;99.90;;;;;;5049048;28;20540;-81
2023/10/02 05:36:08;;;;;;;11.10;7.88;;;15.20;99.90;;;;;;5049250;28;20025;-82
2023/10/02 05:38:34;;;;;;;18.73;9.82;;;15.20;99.90;;;;;;5049541;28;20020;-81
2023/10/02 05:41:03;;;;;;;11.18;8.18;;;15.20;99.90;;;;;;5048045;28;20021;-83
2023/10/02 05:43:40;;;;;;;15.73;8.13;;;15.20;99.90;;;;;;5049525;28;20397;-82
2023/10/02 05:46:16;;;;;;;13.25;8.45;;;15.20;99.90;;;;;;5048722;28;20009;-82
2023/10/02 05:48:43;;;;;;;14.75;8.07;;;15.20;99.90;;;;;;5045026;28;20079;-82
2023/10/02 05:51:09;;;;;;;13.68;8.25;;;15.20;99.90;;;;;;5048877;28;20017;-81
2023/10/02 05:53:37;;;;;;;11.20;8.27;;;15.20;99.90;;;;;;5030627;28;20020;-83
2023/10/02 05:56:12;;;;;;;13.38;8.30;;;15.20;99.90;;;;;;5030677;28;20039;-82
2023/10/02 05:58:42;;;;;;;15.75;8.65;;;15.20;99.90;;;;;;5030541;28;20025;-82
2023/10/02 06:01:18;;;;;;;13.82;9.20;;;15.30;99.90;;;;;;5030454;28;20051;-82
2023/10/02 06:03:56;;;;;;;15.02;9.45;;;15.30;99.90;;;;;;5030735;28;20013;-83
2023/10/02 06:06:23;;;;;;;15.88;8.63;;;15.30;99.90;;;;;;5029600;28;20055;-83
2023/10/02 06:08:56;;;;;;;16.75;9.57;;;15.30;99.90;;;;;;5030354;28;20036;-82
2023/10/02 06:11:26;;;;;;;16.33;9.65;;;15.30;99.90;;;;;;5030550;28;20025;-83
2023/10/02 06:14:09;;;;;;;15.73;9.35;;;15.40;99.90;;;;;;5030357;28;20021;-82
2023/10/02 06:16:39;;;;;;;16.15;9.73;;;15.40;99.90;;;;;;5048598;28;20027;-82
2023/10/02 06:19:07;;;;;;;15.55;8.15;;;15.40;99.90;;;;;;5028065;28;20722;-83
2023/10/02 06:21:45;;;;;;;16.38;8.63;;;15.40;99.90;;;;;;5049207;28;20032;-82
2023/10/02 06:24:13;;;;;;;15.57;8.40;;;15.50;99.90;;;;;;5031363;28;20028;-82
2023/10/02 06:26:53;;;;;;;16.05;9.70;;;15.50;99.90;;;;;;5053478;28;20021;-83
2023/10/02 06:29:24;;;;;;;12.25;8.15;;;15.50;99.90;;;;;;5034710;28;20054;-83
2023/10/02 06:32:03;;;;;;;14.55;8.05;;;15.50;99.90;;;;;;5035152;28;20017;-83
2023/10/02 06:34:36;;;;;;;16.50;9.20;;;15.60;99.90;;;;;;5033311;28;20053;-83
2023/10/02 06:37:11;;;;;;;15.13;8.27;;;15.60;99.90;;;;;;5051629;28;20016;-82
2023/10/02 06:39:39;;;;;;;13.77;8.55;;;15.60;99.90;;;;;;5052921;28;20028;-83
2023/10/02 06:42:09;;;;;;;13.65;8.48;;;15.70;99.90;;;;;;5034128;28;20116;-82
2023/10/02 06:44:41;;;;;;;13.95;8.45;;;15.70;99.90;;;;;;5033471;28;20326;-82
2023/10/02 06:47:11;;;;;;;13.20;7.78;;;15.70;99.90;;;;;;5034477;28;20020;-82
2023/10/02 06:49:41;;;;;;;13.82;8.00;;;15.70;99.90;;;;;;5052047;28;20342;-82
2023/10/02 06:52:16;;;;;;;15.00;8.45;;;15.80;99.90;;;;;;5052460;28;20104;-82
2023/10/02 06:54:44;;;;;;;14.27;9.00;;;15.80;99.90;;;;;;5034373;28;20099;-82
2023/10/02 06:57:11;;;;;;;15.30;9.45;;;15.90;99.90;;;;;;5032816;28;20083;-82
2023/10/02 06:59:38;;;;;;;16.13;9.25;;;15.90;99.90;;;;;;5033279;28;20021;-82
2023/10/02 07:02:06;;;;;;;14.50;8.80;;;15.90;99.90;;;;;;5034110;28;20021;-83
2023/10/02 07:04:36;;;;;;;17.52;9.32;;;16.00;99.90;;;;;;5032913;28;20012;-83
2023/10/02 07:07:07;;;;;;;13.57;9.18;;;16.10;99.90;;;;;;5033130;28;20591;-83
2023/10/02 07:09:37;;;;;;;15.02;9.18;;;16.10;99.90;;;;;;5033896;28;20075;-83
2023/10/02 07:12:09;;;;;;;15.70;8.57;;;16.10;99.90;;;;;;5050442;28;20060;-82
2023/10/02 07:14:43;;;;;;;14.65;8.73;;;16.20;99.90;;;;;;5033398;28;20021;-84
2023/10/02 07:17:22;;;;;;;16.55;9.40;;;16.20;99.90;;;;;;5033923;28;20070;-83
2023/10/02 07:19:50;;;;;;;16.27;9.75;;;16.30;99.90;;;;;;5034572;28;20021;-82
2023/10/02 07:22:17;;;;;;;16.42;8.55;;;16.40;99.90;;;;;;5048998;28;20028;-82
2023/10/02 07:24:46;;;;;;;18.33;10.25;;;16.50;99.90;;;;;;5048471;28;20027;-83
2023/10/02 07:27:23;;;;;;;14.73;8.80;;;16.50;99.90;;;;;;5041686;28;20476;-82
2023/10/02 07:29:57;;;;;;;16.48;8.07;;;16.50;99.90;;;;;;5030295;28;20596;-83
2023/10/02 07:32:27;;;;;;;15.98;8.63;;;16.50;99.90;;;;;;5031950;28;20027;-83
2023/10/02 07:34:54;;;;;;;16.60;9.02;;;16.60;99.90;;;;;;5048883;28;20024;-83
2023/10/02 07:37:21;;;;;;;16.70;9.20;;;16.60;99.90;;;;;;5051313;28;20044;-82
2023/10/02 07:39:49;;;;;;;14.30;8.40;;;16.60;99.90;;;;;;5033598;28;20074;-82
2023/10/02 07:42:16;;;;;;;14.98;9.85;;;16.70;99.90;;;;;;5031293;28;20024;-82
2023/10/02 07:44:42;;;;;;;16.02;8.60;;;16.70;99.90;;;;;;5034328;28;20112;-82
2023/10/02 07:47:16;;;;;;;16.25;9.40;;;16.80;99.90;;;;;;5033885;28;20364;-82
2023/10/02 07:49:48;;;;;;;16.35;8.88;;;16.80;99.90;;;;;;5050241;28;20568;-81
2023/10/02 07:52:26;;;;;;;15.55;9.18;;;16.80;99.90;;;;;;5048778;28;20013;-83
2023/10/02 07:54:59;;;;;;;18.50;8.88;;;16.90;99.90;;;;;;5033004;28;20239;-82
2023/10/02 07:57:32;;;;;;;11.98;8.50;;;16.90;99.90;;;;;;5033018;28;20021;-82
2023/10/02 08:00:33;;;;;;;17.38;9.13;;;17.00;99.90;;;;;;5033267;28;20021;-82
2023/10/02 08:02:55;;;;;;;11.88;8.05;;;17.10;99.90;;;;;;5047934;28;20023;-83
2023/10/02 08:05:21;;;;;;;13.70;8.35;;;17.10;99.90;;;;;;5032809;28;20021;-82
2023/10/02 08:07:47;;;;;;;14.38;7.95;;;17.20;99.90;;;;;;5051038;28;20061;-82
2023/10/02 08:10:15;;;;;;;16.73;9.75;;;17.20;99.90;;;;;;5032934;28;20017;-81
2023/10/02 08:12:54;;;;;;;15.15;8.43;;;17.30;99.90;;;;;;5033308;28;20032;-83
2023/10/02 08:15:26;;;;;;;15.63;8.77;;;17.30;99.90;;;;;;5033366;28;20420;-82
2023/10/02 08:20:37;;;;;;;14.95;9.68;;;17.40;99.90;;;;;;5050436;28;20048;-83
2023/10/02 08:23:21;;;;;;;13.18;8.88;;;17.50;99.90;;;;;;5050014;28;20479;-81
2023/10/02 08:26:00;;;;;;;14.90;9.15;;;17.50;99.90;;;;;;5048607;28;20025;-82
2023/10/02 08:28:30;;;;;;;13.70;8.68;;;17.60;99.90;;;;;;5033552;28;20120;-82
2023/10/02 08:31:02;;;;;;;16.20;9.38;;;17.70;99.90;;;;;;5047530;28;20056;-82
2023/10/02 08:33:33;;;;;;;15.93;9.45;;;17.70;99.90;;;;;;5050098;28;20025;-82
2023/10/02 08:36:01;;;;;;;16.77;9.52;;;17.80;99.90;;;;;;5049335;28;20515;-83
2023/10/02 08:38:27;;;;;;;13.50;8.82;;;17.90;99.90;;;;;;5050772;28;20434;-82
2023/10/02 08:41:02;;;;;;;14.00;8.35;;;17.90;99.90;;;;;;5033771;28;20044;-82
2023/10/02 08:43:29;;;;;;;16.92;8.38;;;17.90;99.90;;;;;;5032669;28;20032;-82
2023/10/02 08:45:56;;;;;;;13.35;8.07;;;17.90;99.90;;;;;;5047867;28;20249;-83
2023/10/02 08:48:25;;;;;;;17.75;9.57;;;18.00;99.90;;;;;;5031529;28;20023;-82
2023/10/02 08:50:56;;;;;;;18.13;10.23;;;18.10;99.90;;;;;;5050927;28;20044;-82
2023/10/02 08:53:23;;;;;;;15.02;8.23;;;18.20;99.90;;;;;;5031962;28;20550;-83
2023/10/02 08:56:21;;;;;;;15.00;9.75;;;18.20;99.90;;;;;;5051012;28;20032;-82
2023/10/02 08:58:48;;;;;;;16.00;9.93;;;18.30;99.90;;;;;;5047251;28;20024;-82
2023/10/02 09:01:20;;;;;;;14.50;8.82;;;18.30;99.90;;;;;;5032441;28;21216;-82
2023/10/02 09:04:21;;;;;;;13.68;9.05;;;18.50;99.90;;;;;;5033425;28;20021;-83
2023/10/02 09:06:41;;;;;;;17.83;9.82;;;18.50;99.90;;;;;;5050959;28;20103;-84
2023/10/02 09:09:27;;;;;;;23.50;11.35;;;18.50;99.90;;;;;;5051020;28;20445;-82
2023/10/02 09:11:58;;;;;;;19.73;10.30;;;18.50;99.90;;;;;;5033369;28;20048;-82
2023/10/02 09:19:48;;;;;;;15.30;9.82;;;18.60;99.90;;;;;;5046608;28;20120;-82
2023/10/02 09:22:16;;;;;;;15.70;8.93;;;18.70;99.90;;;;;;5049449;28;20445;-83
2023/10/02 09:24:55;;;;;;;17.55;9.00;;;18.70;99.90;;;;;;5050810;28;20016;-82
2023/10/02 09:27:23;;;;;;;13.27;7.70;;;18.80;99.90;;;;;;5033119;28;20089;-82
2023/10/02 09:30:15;;;;;;;17.85;8.55;;;18.80;99.90;;;;;;5050997;28;20028;-83
2023/10/02 09:32:52;;;;;;;16.48;8.57;;;18.90;99.90;;;;;;5051772;28;20452;-83
2023/10/02 09:35:41;;;;;;;14.55;8.48;;;18.90;99.90;;;;;;5048885;28;20508;-83
2023/10/02 09:38:13;;;;;;;13.38;8.60;;;19.00;99.90;;;;;;5046902;28;20049;-84
2023/10/02 09:40:54;;;;;;;15.10;9.48;;;19.00;99.90;;;;;;5031067;28;20017;-82
2023/10/02 09:43:23;;;;;;;14.95;8.77;;;19.10;99.90;;;;;;5048954;28;20025;-82
2023/10/02 09:45:54;;;;;;;17.02;8.70;;;19.10;99.90;;;;;;5031007;28;20028;-82
2023/10/02 09:48:46;;;;;;;15.45;8.73;;;19.10;99.90;;;;;;5030491;28;20025;-82
2023/10/02 09:51:26;;;;;;;14.80;8.93;;;19.20;99.90;;;;;;5047252;28;20021;-82
2023/10/02 09:54:25;;;;;;;13.40;9.50;;;19.20;99.90;;;;;;5031425;28;20025;-82
2023/10/02 09:57:05;;;;;;;16.17;8.63;;;19.30;99.90;;;;;;5046230;28;20009;-81
2023/10/02 09:59:48;;;;;;;15.98;8.65;;;19.30;99.90;;;;;;5048501;28;20013;-83
2023/10/02 10:05:23;;;;;;;18.38;9.15;;;19.40;99.90;;;;;;5045228;28;20059;-82
2023/10/02 10:10:52;;;;;;;17.70;9.80;;;19.50;99.90;;;;;;5048124;28;20401;-82
2023/10/02 10:13:46;;;;;;;13.70;8.05;;;19.60;99.90;;;;;;5029116;28;20400;-81
2023/10/02 10:16:29;;;;;;;13.13;8.02;;;19.60;99.90;;;;;;5046256;28;20025;-82
2023/10/02 10:21:57;;;;;;;15.68;8.00;;;19.70;99.90;;;;;;5047743;28;20055;-82
2023/10/02 10:24:55;;;;;;;16.92;9.00;;;19.80;99.90;;;;;;5027219;28;20025;-82
2023/10/02 10:27:41;;;;;;;14.48;8.07;;;19.90;99.90;;;;;;5027065;28;20028;-82
2023/10/02 10:30:24;;;;;;;17.70;7.97;;;20.00;99.90;;;;;;5027381;28;20032;-81
2023/10/02 10:35:34;;;;;;;16.00;8.32;;;20.10;99.90;;;;;;5047691;28;20051;-81
2023/10/02 10:38:03;;;;;;;17.70;9.10;;;20.10;99.90;;;;;;5027003;28;20382;-82
2023/10/02 10:40:44;;;;;;;13.07;7.32;;;20.10;99.90;;;;;;5047945;28;20016;-82
2023/10/02 10:43:17;;;;;;;14.32;8.10;;;20.10;99.90;;;;;;5028781;28;20025;-81
2023/10/02 10:45:48;;;;;;;13.15;7.70;;;20.10;99.90;;;;;;5044931;28;20108;-82
2023/10/02 10:48:24;;;;;;;14.35;8.30;;;20.20;99.90;;;;;;5029445;28;20381;-82
2023/10/02 10:51:00;;;;;;;14.43;8.20;;;20.20;99.90;;;;;;5026122;28;20117;-82
2023/10/02 10:53:29;;;;;;;13.63;7.40;;;20.30;99.90;;;;;;5047113;28;20037;-82
2023/10/02 10:56:07;;;;;;;14.13;7.95;;;20.30;99.90;;;;;;5030298;28;20382;-82
2023/10/02 10:58:43;;;;;;;14.32;8.35;;;20.40;99.90;;;;;;5046350;28;20024;-82
2023/10/02 11:01:13;;;;;;;15.60;8.27;;;20.40;99.90;;;;;;5028286;28;20025;-82
2023/10/02 11:03:43;;;;;;;13.35;8.35;;;20.50;99.90;;;;;;5029931;28;20029;-82
2023/10/02 11:06:10;;;;;;;18.08;9.13;;;20.40;99.90;;;;;;5029896;28;20040;-81
2023/10/02 11:08:38;;;;;;;12.82;7.38;;;20.50;99.90;;;;;;5030129;28;20091;-81
2023/10/02 11:11:18;;;;;;;12.70;7.60;;;20.40;99.90;;;;;;5029768;28;20606;-82
2023/10/02 11:13:52;;;;;;;16.27;8.88;;;20.50;99.90;;;;;;5048826;28;20025;-81
2023/10/02 11:16:39;;;;;;;14.25;7.68;;;20.60;99.90;;;;;;5051559;28;20017;-82
2023/10/02 11:22:22;;;;;;;16.45;8.30;;;20.60;99.90;;;;;;5045409;28;20025;-82
2023/10/02 11:24:53;;;;;;;16.00;8.48;;;20.60;99.90;;;;;;5049272;28;20025;-81
2023/10/02 11:27:21;;;;;;;14.25;7.93;;;20.70;99.90;;;;;;5049353;28;20056;-82
2023/10/02 11:30:03;;;;;;;14.88;7.78;;;20.60;99.90;;;;;;5046157;28;20017;-82
2023/10/02 11:32:48;;;;;;;12.80;7.55;;;20.70;99.90;;;;;;5033578;28;20029;-82
2023/10/02 11:35:14;;;;;;;13.00;8.65;;;20.70;99.90;;;;;;5033503;28;20032;-82
2023/10/02 11:37:47;;;;;;;12.18;7.60;;;20.70;99.90;;;;;;5033802;28;20272;-83
2023/10/02 11:40:13;;;;;;;13.48;7.72;;;20.70;99.90;;;;;;5051303;28;20032;-83
2023/10/02 11:42:40;;;;;;;12.70;6.78;;;20.70;99.90;;;;;;5033242;28;20039;-82
2023/10/02 11:45:06;;;;;;;15.15;7.90;;;20.70;99.90;;;;;;5032648;28;20025;-82
2023/10/02 11:47:32;;;;;;;12.02;8.00;;;20.70;99.90;;;;;;5033064;28;20032;-81
2023/10/02 11:49:57;;;;;;;13.65;7.90;;;20.80;99.90;;;;;;5032619;28;20573;-82
2023/10/02 11:52:23;;;;;;;14.10;7.65;;;20.80;99.90;;;;;;5032664;28;20025;-81
2023/10/02 11:54:48;;;;;;;14.52;8.18;;;20.80;99.90;;;;;;5050088;28;20028;-81
2023/10/02 11:57:14;;;;;;;14.77;7.65;;;20.90;99.90;;;;;;5050174;28;20025;-82
2023/10/02 11:59:47;;;;;;;16.58;8.57;;;21.00;99.90;;;;;;5032498;28;20078;-82
2023/10/02 12:02:16;;;;;;;13.73;8.00;;;21.00;99.90;;;;;;5050163;28;20481;-81
2023/10/02 12:04:45;;;;;;;13.15;8.02;;;21.00;99.90;;;;;;5031610;28;20458;-82
2023/10/02 12:07:16;;;;;;;15.73;7.93;;;21.00;99.90;;;;;;5031325;28;20029;-81
2023/10/02 12:09:49;;;;;;;12.30;7.07;;;21.10;99.90;;;;;;5031997;28;20029;-83
2023/10/02 12:12:15;;;;;;;11.00;7.00;;;21.10;99.90;;;;;;5046874;28;20114;-81
2023/10/02 12:14:42;;;;;;;14.48;8.18;;;21.10;99.90;;;;;;5031737;28;20057;-83
2023/10/02 12:17:11;;;;;;;13.40;7.55;;;21.20;99.90;;;;;;5031786;28;20013;-81
2023/10/02 12:19:39;;;;;;;11.55;7.03;;;21.20;99.90;;;;;;5052043;28;20013;-82
2023/10/02 12:22:08;;;;;;;14.32;7.88;;;21.20;99.90;;;;;;5033805;28;20025;-81
2023/10/02 12:24:35;;;;;;;12.52;7.32;;;21.30;99.90;;;;;;5033640;28;20185;-81
2023/10/02 12:27:10;;;;;;;12.77;7.20;;;21.30;99.90;;;;;;5050623;28;20081;-81
2023/10/02 12:29:36;;;;;;;14.65;7.63;;;21.30;99.90;;;;;;5029678;28;20021;-81
2023/10/02 12:32:02;;;;;;;13.18;8.00;;;21.30;99.90;;;;;;5033091;28;20060;-81
2023/10/02 12:34:28;;;;;;;14.88;7.43;;;21.20;99.90;;;;;;5050145;28;20067;-81
2023/10/02 12:36:54;;;;;;;15.20;8.35;;;21.20;99.90;;;;;;5033019;28;20013;-82
2023/10/02 12:39:20;;;;;;;11.60;7.13;;;21.30;99.90;;;;;;5028972;28;20013;-82
2023/10/02 12:41:45;;;;;;;10.38;7.05;;;21.30;99.90;;;;;;5029190;28;20503;-81
2023/10/02 12:44:11;;;;;;;11.07;7.25;;;21.30;99.90;;;;;;5033017;28;20349;-83
2023/10/02 12:46:50;;;;;;;9.02;6.18;;;21.30;99.90;;;;;;5050842;28;20647;-81
2023/10/02 12:49:19;;;;;;;11.70;7.65;;;21.40;99.90;;;;;;5031365;28;20020;-82
2023/10/02 12:51:45;;;;;;;14.32;7.18;;;21.40;99.90;;;;;;5033415;28;20028;-82
2023/10/02 12:54:11;;;;;;;12.48;6.93;;;21.40;99.90;;;;;;5033221;28;20025;-82
2023/10/02 12:56:38;;;;;;;12.27;6.68;;;21.50;99.90;;;;;;5051529;28;20110;-82
2023/10/02 12:59:08;;;;;;;13.10;6.65;;;21.50;99.90;;;;;;5047799;28;20017;-82
2023/10/02 13:01:33;;;;;;;12.57;7.95;;;21.60;99.90;;;;;;5049019;28;20013;-82
2023/10/02 13:03:59;;;;;;;13.40;7.63;;;21.60;99.90;;;;;;5031549;28;20055;-80
2023/10/02 13:06:27;;;;;;;15.85;7.80;;;21.60;99.90;;;;;;5032745;28;20025;-83
2023/10/02 13:09:36;;;;;;;13.65;8.27;;;21.60;99.90;;;;;;5028184;28;20116;-81
2023/10/02 13:11:44;;;;;;;11.50;7.18;;;21.60;99.90;;;;;;5039651;28;20163;-82
2023/10/02 13:14:16;;;;;;;11.88;7.20;;;21.50;99.90;;;;;;5030992;28;20039;-82
2023/10/02 13:16:43;;;;;;;15.18;7.82;;;21.50;99.90;;;;;;5031293;28;20027;-82
2023/10/02 13:19:09;;;;;;;16.20;9.00;;;21.50;99.90;;;;;;5030942;28;20021;-81
2023/10/02 13:21:37;;;;;;;13.55;7.80;;;21.50;99.90;;;;;;5050540;28;20021;-82
2023/10/02 13:24:03;;;;;;;12.35;7.13;;;21.50;99.90;;;;;;5032220;28;20035;-81
2023/10/02 13:26:29;;;;;;;13.43;7.63;;;21.50;99.90;;;;;;5030996;28;20037;-81
2023/10/02 13:28:55;;;;;;;11.55;7.63;;;21.50;99.90;;;;;;5032014;28;20025;-81
2023/10/02 13:31:21;;;;;;;14.52;7.00;;;21.40;99.90;;;;;;5050170;28;20025;-82
2023/10/02 13:33:51;;;;;;;11.20;6.15;;;21.40;99.90;;;;;;5048422;28;20032;-81
2023/10/02 13:36:23;;;;;;;15.27;9.35;;;21.50;99.90;;;;;;5050212;28;20052;-81
2023/10/02 13:38:56;;;;;;;13.60;7.85;;;21.50;99.90;;;;;;5032365;28;20032;-81
2023/10/02 13:41:22;;;;;;;14.77;7.93;;;21.50;99.90;;;;;;5048516;28;20017;-82
2023/10/02 13:43:49;;;;;;;10.80;7.20;;;21.50;99.90;;;;;;5049922;28;20021;-81
2023/10/02 13:46:16;;;;;;;12.93;7.93;;;21.40;99.90;;;;;;5031028;28;20021;-81
2023/10/02 13:48:43;;;;;;;14.65;8.23;;;21.40;99.90;;;;;;5030773;28;20050;-81
2023/10/02 13:51:09;;;;;;;14.40;7.72;;;21.40;99.90;;;;;;5048130;28;20013;-82